createdAt,value
2018-12-27T00:02:16.779Z,26.77
2018-12-27T00:04:57.519Z,22.02
2018-12-27T00:07:37.847Z,30.30
2018-12-27T00:10:18.737Z,22.40
2018-12-27T00:12:59.549Z,24.27
2018-12-27T00:15:40.581Z,25.00
2018-12-27T00:18:21.214Z,28.70
2018-12-27T00:21:02.217Z,29.18
2018-12-27T00:23:42.899Z,25.05
2018-12-27T00:26:23.211Z,25.08
2018-12-27T00:29:03.949Z,32.58
2018-12-27T00:31:44.749Z,28.55
2018-12-27T00:34:25.280Z,28.20
2018-12-27T00:37:05.859Z,25.80
2018-12-27T00:39:46.946Z,28.83
2018-12-27T00:42:28.233Z,33.00
2018-12-27T00:45:09.384Z,25.82
2018-12-27T00:47:49.905Z,31.80
2018-12-27T00:50:30.464Z,31.77
2018-12-27T00:53:11.115Z,28.40
2018-12-27T00:55:51.843Z,26.95
2018-12-27T00:58:32.937Z,32.80
2018-12-27T01:01:13.663Z,26.42
2018-12-27T01:03:54.459Z,25.90
2018-12-27T01:06:35.033Z,31.80
2018-12-27T01:09:15.650Z,29.30
2018-12-27T01:11:56.453Z,29.25
2018-12-27T01:14:36.924Z,24.30
2018-12-27T01:17:17.490Z,29.57
2018-12-27T01:19:58.454Z,33.98
2018-12-27T01:22:39.086Z,34.67
2018-12-27T01:25:20.104Z,34.40
2018-12-27T01:28:00.912Z,30.62
2018-12-27T01:30:41.412Z,27.40
2018-12-27T01:33:22.537Z,31.42
2018-12-27T01:36:03.133Z,27.73
2018-12-27T01:38:44.081Z,27.30
2018-12-27T01:41:24.818Z,34.63
2018-12-27T01:44:05.359Z,37.33
2018-12-27T01:46:45.910Z,36.95
2018-12-27T01:49:26.961Z,33.58
2018-12-27T01:52:07.653Z,34.03
2018-12-27T01:54:36.244Z,29.82
2018-12-27T01:57:16.925Z,29.92
2018-12-27T01:59:57.577Z,32.63
2018-12-27T02:02:38.572Z,30.48
2018-12-27T02:05:19.151Z,28.25
2018-12-27T02:08:00.047Z,27.77
2018-12-27T02:10:40.560Z,29.32
2018-12-27T02:13:21.536Z,28.57
2018-12-27T02:16:02.449Z,32.55
2018-12-27T02:18:43.477Z,30.72
2018-12-27T02:21:24.370Z,34.08
2018-12-27T02:24:05.217Z,33.28
2018-12-27T02:26:45.785Z,32.30
2018-12-27T02:29:26.785Z,34.53
2018-12-27T02:32:07.337Z,31.45
2018-12-27T02:34:48.008Z,33.05
2018-12-27T02:37:28.566Z,30.27
2018-12-27T02:40:09.307Z,32.88
2018-12-27T02:42:49.916Z,34.30
2018-12-27T02:45:30.738Z,29.00
2018-12-27T02:48:11.714Z,34.38
2018-12-27T02:50:52.325Z,35.70
2018-12-27T02:53:32.889Z,29.48
2018-12-27T02:56:13.385Z,31.23
2018-12-27T02:58:54.207Z,37.25
2018-12-27T03:01:35.010Z,34.33
2018-12-27T03:04:15.459Z,37.98
2018-12-27T03:06:56.324Z,36.03
2018-12-27T03:09:37.122Z,41.55
2018-12-27T03:12:17.629Z,38.05
2018-12-27T03:14:58.535Z,31.75
2018-12-27T03:17:39.695Z,34.20
2018-12-27T03:20:20.324Z,37.83
2018-12-27T03:23:01.008Z,35.35
2018-12-27T03:25:41.501Z,35.73
2018-12-27T03:28:22.301Z,37.60
2018-12-27T03:31:03.098Z,41.68
2018-12-27T03:36:13.919Z,39.40
2018-12-27T03:38:42.504Z,33.23
2018-12-27T03:41:11.158Z,30.15
2018-12-27T03:43:40.258Z,26.02
2018-12-27T03:46:08.893Z,38.05
2018-12-27T03:48:37.592Z,27.98
2018-12-27T03:51:06.201Z,29.70
2018-12-27T03:53:34.838Z,30.17
2018-12-27T03:56:03.448Z,28.87
2018-12-27T03:58:32.152Z,27.58
2018-12-27T04:01:00.744Z,28.60
2018-12-27T04:03:29.419Z,33.75
2018-12-27T04:05:58.098Z,26.45
2018-12-27T04:08:26.737Z,29.23
2018-12-27T04:10:55.415Z,24.00
2018-12-27T04:13:24.064Z,24.50
2018-12-27T04:15:52.636Z,30.77
2018-12-27T04:18:21.064Z,30.08
2018-12-27T04:20:49.689Z,33.20
2018-12-27T04:23:18.631Z,28.23
2018-12-27T04:25:47.510Z,22.45
2018-12-27T04:28:15.972Z,30.88
2018-12-27T04:30:45.473Z,27.35
2018-12-27T04:33:15.586Z,34.75
2018-12-27T04:35:44.625Z,24.40
2018-12-27T04:38:13.149Z,30.62
2018-12-27T04:40:41.640Z,27.75
2018-12-27T04:43:10.357Z,27.32
2018-12-27T04:45:39.060Z,27.90
2018-12-27T04:48:07.565Z,28.60
2018-12-27T04:50:36.059Z,27.20
2018-12-27T04:53:04.493Z,33.70
2018-12-27T04:55:33.006Z,31.07
2018-12-27T04:58:01.554Z,30.80
2018-12-27T05:00:30.114Z,27.65
2018-12-27T05:02:58.657Z,40.00
2018-12-27T05:05:27.136Z,34.45
2018-12-27T05:07:55.681Z,30.85
2018-12-27T05:10:24.280Z,31.42
2018-12-27T05:12:52.773Z,27.35
2018-12-27T05:15:21.304Z,23.55
2018-12-27T05:17:49.817Z,39.35
2018-12-27T05:20:18.297Z,31.65
2018-12-27T05:22:46.749Z,33.13
2018-12-27T05:25:15.191Z,38.42
2018-12-27T05:27:43.705Z,32.70
2018-12-27T05:30:12.152Z,30.30
2018-12-27T05:32:40.664Z,29.70
2018-12-27T05:35:09.281Z,32.38
2018-12-27T05:37:37.797Z,35.98
2018-12-27T05:40:07.061Z,33.90
2018-12-27T05:42:35.643Z,22.22
2018-12-27T05:45:04.525Z,26.25
2018-12-27T05:47:33.017Z,25.70
2018-12-27T05:50:01.462Z,27.82
2018-12-27T05:52:29.952Z,34.60
2018-12-27T05:54:58.444Z,28.75
2018-12-27T05:57:26.932Z,29.80
2018-12-27T05:59:55.425Z,27.48
2018-12-27T06:02:23.949Z,28.10
2018-12-27T06:04:52.501Z,30.37
2018-12-27T06:07:20.932Z,25.23
2018-12-27T06:09:49.399Z,30.35
2018-12-27T06:12:17.971Z,27.85
2018-12-27T06:14:46.415Z,25.57
2018-12-27T06:17:14.984Z,25.32
2018-12-27T06:19:43.435Z,29.37
2018-12-27T06:22:12.003Z,35.92
2018-12-27T06:24:40.441Z,30.25
2018-12-27T06:27:08.928Z,28.52
2018-12-27T06:29:37.369Z,28.45
2018-12-27T06:32:05.857Z,28.90
2018-12-27T06:34:41.124Z,32.58
2018-12-27T06:37:04.462Z,29.60
2018-12-27T06:39:33.032Z,26.70
2018-12-27T06:42:01.538Z,30.70
2018-12-27T06:44:30.130Z,28.75
2018-12-27T06:46:58.580Z,31.27
2018-12-27T06:49:27.006Z,33.95
2018-12-27T06:51:55.544Z,28.40
2018-12-27T06:54:24.249Z,34.78
2018-12-27T06:56:52.781Z,30.95
2018-12-27T06:59:21.227Z,25.32
2018-12-27T07:01:49.721Z,31.73
2018-12-27T07:04:18.201Z,28.20
2018-12-27T07:06:46.641Z,27.07
2018-12-27T07:09:15.128Z,24.70
2018-12-27T07:11:43.702Z,33.30
2018-12-27T07:14:12.319Z,30.82
2018-12-27T07:16:40.780Z,30.40
2018-12-27T07:19:09.285Z,31.52
2018-12-27T07:21:37.811Z,28.45
2018-12-27T07:24:06.382Z,28.42
2018-12-27T07:26:34.818Z,23.57
2018-12-27T07:29:03.312Z,30.55
2018-12-27T07:31:31.798Z,27.52
2018-12-27T07:34:00.312Z,24.98
2018-12-27T07:36:28.752Z,27.67
2018-12-27T07:38:57.261Z,36.40
2018-12-27T07:41:25.728Z,23.98
2018-12-27T07:43:54.376Z,32.45
2018-12-27T07:46:22.894Z,32.17
2018-12-27T07:48:51.405Z,29.77
2018-12-27T07:51:19.902Z,24.05
2018-12-27T07:53:48.332Z,26.85
2018-12-27T07:56:17.213Z,26.45
2018-12-27T07:58:45.663Z,24.18
2018-12-27T08:01:14.157Z,27.22
2018-12-27T08:03:42.591Z,23.50
2018-12-27T08:06:11.113Z,23.12
2018-12-27T08:08:39.690Z,22.50
2018-12-27T08:11:08.174Z,24.18
2018-12-27T08:13:36.677Z,19.50
2018-12-27T08:16:05.198Z,20.82
2018-12-27T08:18:33.855Z,23.98
2018-12-27T08:21:02.357Z,21.30
2018-12-27T08:23:30.965Z,21.15
2018-12-27T08:25:59.445Z,29.45
2018-12-27T08:28:28.025Z,24.55
2018-12-27T08:30:56.481Z,27.85
2018-12-27T08:33:25.029Z,32.73
2018-12-27T08:35:53.629Z,25.55
2018-12-27T08:38:22.072Z,31.35
2018-12-27T08:40:50.665Z,34.30
2018-12-27T08:43:19.226Z,26.12
2018-12-27T08:45:47.700Z,26.60
2018-12-27T08:48:16.136Z,30.90
2018-12-27T08:50:44.631Z,29.10
2018-12-27T08:53:13.139Z,25.48
2018-12-27T08:55:41.794Z,28.85
2018-12-27T08:58:10.262Z,27.00
2018-12-27T09:00:38.831Z,30.05
2018-12-27T09:03:07.270Z,29.50
2018-12-27T09:05:35.766Z,27.30
2018-12-27T09:08:04.201Z,26.82
2018-12-27T09:10:32.986Z,27.27
2018-12-27T09:13:01.573Z,33.85
2018-12-27T09:15:30.022Z,29.27
2018-12-27T09:17:58.551Z,29.75
2018-12-27T09:20:27.049Z,28.83
2018-12-27T09:22:55.549Z,34.18
2018-12-27T09:25:24.043Z,32.25
2018-12-27T09:27:52.549Z,34.18
2018-12-27T09:30:21.001Z,30.30
2018-12-27T09:32:49.574Z,30.48
2018-12-27T09:35:18.114Z,33.00
2018-12-27T09:37:46.573Z,37.33
2018-12-27T09:40:34.469Z,34.55
2018-12-27T09:43:22.260Z,31.62
2018-12-27T09:46:10.140Z,30.35
2018-12-27T09:48:58.030Z,27.55
2018-12-27T09:51:26.540Z,32.25
2018-12-27T09:53:55.052Z,34.40
2018-12-27T09:56:42.915Z,31.55
2018-12-27T09:59:11.477Z,32.42
2018-12-27T10:01:59.356Z,31.33
2018-12-27T10:04:47.309Z,31.50
2018-12-27T10:07:35.227Z,34.20
2018-12-27T10:10:23.225Z,29.40
2018-12-27T10:13:11.186Z,32.35
2018-12-27T10:15:52.342Z,31.75
2018-12-27T10:18:20.788Z,31.85
2018-12-27T10:21:08.698Z,29.20
2018-12-27T10:23:56.593Z,34.85
2018-12-27T10:26:44.536Z,33.73
2018-12-27T10:29:32.321Z,34.58
2018-12-27T10:32:20.267Z,31.25
2018-12-27T10:35:08.168Z,40.83
2018-12-27T10:37:56.132Z,30.00
2018-12-27T10:40:43.999Z,27.40
2018-12-27T10:43:31.798Z,33.85
2018-12-27T10:46:19.722Z,27.50
2018-12-27T10:49:07.561Z,32.35
2018-12-27T10:51:55.409Z,30.70
2018-12-27T10:54:43.188Z,32.58
2018-12-27T10:57:31.200Z,39.27
2018-12-27T11:00:19.280Z,32.23
2018-12-27T11:02:59.957Z,32.93
2018-12-27T11:05:40.635Z,32.60
2018-12-27T11:08:21.275Z,39.38
2018-12-27T11:11:02.174Z,32.10
2018-12-27T11:13:42.746Z,24.75
2018-12-27T11:16:23.285Z,41.92
2018-12-27T11:19:04.415Z,29.60
2018-12-27T11:21:45.354Z,31.80
2018-12-27T11:24:25.700Z,28.12
2018-12-27T11:27:06.409Z,41.23
2018-12-27T11:29:47.346Z,37.60
2018-12-27T11:32:27.815Z,32.15
2018-12-27T11:35:08.766Z,35.92
2018-12-27T11:37:50.083Z,31.20
2018-12-27T11:40:30.787Z,29.95
2018-12-27T11:43:11.891Z,38.78
2018-12-27T11:45:52.501Z,37.85
2018-12-27T11:48:33.015Z,39.13
2018-12-27T11:51:13.407Z,32.65
2018-12-27T11:53:54.149Z,36.15
2018-12-27T11:56:35.032Z,33.58
2018-12-27T11:59:15.950Z,35.80
2018-12-27T12:01:56.705Z,34.23
2018-12-27T12:04:37.341Z,31.42
2018-12-27T12:07:17.701Z,31.17
2018-12-27T12:09:58.339Z,28.90
2018-12-27T12:12:38.736Z,39.85
2018-12-27T12:15:19.097Z,35.83
2018-12-27T12:18:00.256Z,36.10
2018-12-27T12:20:40.994Z,37.00
2018-12-27T12:23:09.504Z,41.48
2018-12-27T12:25:57.353Z,41.50
2018-12-27T12:28:45.195Z,35.75
2018-12-27T12:31:33.002Z,37.42
2018-12-27T12:34:20.872Z,37.67
2018-12-27T12:37:13.937Z,36.70
2018-12-27T12:39:58.329Z,42.20
2018-12-27T12:42:46.096Z,38.42
2018-12-27T12:45:34.038Z,43.23
2018-12-27T12:48:21.823Z,36.85
2018-12-27T12:51:09.695Z,37.53
2018-12-27T12:53:57.545Z,35.15
2018-12-27T12:56:45.457Z,34.45
2018-12-27T12:59:33.301Z,37.58
2018-12-27T13:02:21.169Z,31.68
2018-12-27T13:05:09.015Z,34.65
2018-12-27T13:07:49.845Z,34.03
2018-12-27T13:10:30.374Z,30.95
2018-12-27T13:13:11.419Z,35.03
2018-12-27T13:15:51.918Z,33.08
2018-12-27T13:18:32.538Z,34.85
2018-12-27T13:21:13.596Z,32.30
2018-12-27T13:23:54.214Z,29.35
2018-12-27T13:26:35.055Z,31.97
2018-12-27T13:29:15.553Z,34.08
2018-12-27T13:31:56.261Z,33.70
2018-12-27T13:34:37.010Z,37.03
2018-12-27T13:37:17.683Z,34.30
2018-12-27T13:39:58.626Z,38.60
2018-12-27T13:42:39.134Z,27.95
2018-12-27T13:45:19.707Z,33.40
2018-12-27T13:48:00.521Z,34.95
2018-12-27T13:50:41.056Z,27.58
2018-12-27T13:53:21.873Z,33.85
2018-12-27T13:56:02.611Z,32.28
2018-12-27T13:58:43.228Z,29.40
2018-12-27T14:01:23.466Z,31.45
2018-12-27T14:04:04.430Z,28.12
2018-12-27T14:06:45.089Z,31.65
2018-12-27T14:09:25.817Z,30.23
2018-12-27T14:12:06.853Z,29.42
2018-12-27T14:14:47.576Z,30.02
2018-12-27T14:17:28.482Z,34.70
2018-12-27T14:20:09.450Z,36.17
2018-12-27T14:22:50.547Z,34.53
2018-12-27T14:25:31.483Z,29.42
2018-12-27T14:28:12.359Z,37.28
2018-12-27T14:30:52.909Z,31.00
2018-12-27T14:33:33.535Z,32.48
2018-12-27T14:36:14.602Z,35.38
2018-12-27T14:38:55.247Z,31.25
2018-12-27T14:41:35.891Z,31.50
2018-12-27T14:44:16.652Z,34.75
2018-12-27T14:46:57.401Z,28.15
2018-12-27T14:49:38.256Z,34.40
2018-12-27T14:52:19.278Z,28.05
2018-12-27T14:55:00.190Z,32.38
2018-12-27T14:57:40.713Z,27.45
2018-12-27T15:00:21.467Z,31.70
2018-12-27T15:03:02.309Z,26.35
2018-12-27T15:05:43.134Z,25.90
2018-12-27T15:08:23.654Z,33.95
2018-12-27T15:11:04.039Z,28.57
2018-12-27T15:13:44.895Z,27.10
2018-12-27T15:16:25.625Z,26.82
2018-12-27T15:19:06.158Z,30.15
2018-12-27T15:21:47.153Z,29.45
2018-12-27T15:24:28.073Z,29.05
2018-12-27T15:27:09.008Z,25.68
2018-12-27T15:29:50.048Z,25.97
2018-12-27T15:32:30.642Z,32.25
2018-12-27T15:35:11.784Z,30.12
2018-12-27T15:37:52.442Z,27.42
2018-12-27T15:40:33.287Z,26.12
2018-12-27T15:43:14.585Z,30.37
2018-12-27T15:45:43.237Z,28.05
2018-12-27T15:48:11.736Z,28.70
2018-12-27T15:50:59.692Z,30.15
2018-12-27T15:53:47.665Z,34.30
2018-12-27T15:56:35.539Z,32.70
2018-12-27T15:59:23.469Z,32.88
2018-12-27T16:02:11.342Z,35.65
2018-12-27T16:04:52.196Z,27.17
2018-12-27T16:07:33.333Z,40.15
2018-12-27T16:10:14.575Z,28.00
2018-12-27T16:12:55.014Z,33.55
2018-12-27T16:15:35.693Z,33.58
2018-12-27T16:18:16.436Z,33.65
2018-12-27T16:20:57.670Z,36.55
2018-12-27T16:23:38.386Z,27.00
2018-12-27T16:26:19.084Z,33.85
2018-12-27T16:28:47.679Z,32.88
2018-12-27T16:31:35.563Z,33.13
2018-12-27T16:34:23.480Z,29.20
2018-12-27T16:37:11.408Z,30.23
2018-12-27T16:40:01.575Z,32.25
2018-12-27T16:42:49.575Z,26.93
2018-12-27T16:45:37.365Z,27.55
2018-12-27T16:48:25.442Z,29.27
2018-12-27T16:51:13.429Z,24.20
2018-12-27T16:54:01.356Z,27.27
2018-12-27T16:56:49.128Z,28.23
2018-12-27T16:59:36.970Z,30.30
2018-12-27T17:02:25.063Z,31.05
2018-12-27T17:05:13.217Z,27.73
2018-12-27T17:08:01.149Z,26.52
2018-12-27T17:10:42.120Z,30.68
2018-12-27T17:13:22.686Z,31.68
2018-12-27T17:16:03.648Z,31.25
2018-12-27T17:18:44.577Z,28.85
2018-12-27T17:21:25.593Z,31.12
2018-12-27T17:24:06.477Z,31.42
2018-12-27T17:26:47.101Z,30.57
2018-12-27T17:29:27.868Z,31.82
2018-12-27T17:32:09.167Z,26.82
2018-12-27T17:34:50.422Z,31.25
2018-12-27T17:37:30.961Z,29.87
2018-12-27T17:40:11.742Z,29.85
2018-12-27T17:42:52.363Z,29.57
2018-12-27T17:45:32.997Z,30.95
2018-12-27T17:48:13.449Z,27.15
2018-12-27T17:50:54.286Z,30.80
2018-12-27T17:53:34.963Z,30.77
2018-12-27T17:56:15.499Z,31.00
2018-12-27T17:58:44.038Z,31.55
2018-12-27T18:01:31.969Z,36.83
2018-12-27T18:04:19.819Z,31.70
2018-12-27T18:06:48.491Z,31.17
2018-12-27T18:09:36.288Z,32.80
2018-12-27T18:12:24.172Z,37.08
2018-12-27T18:15:12.006Z,32.80
2018-12-27T18:17:40.593Z,29.75
2018-12-27T18:20:28.418Z,34.33
2018-12-27T18:23:16.278Z,28.45
2018-12-27T18:26:04.238Z,32.55
2018-12-27T18:28:52.012Z,31.82
2018-12-27T18:31:39.968Z,32.33
2018-12-27T18:34:27.769Z,29.27
2018-12-27T18:37:15.721Z,32.48
2018-12-27T18:40:03.954Z,35.23
2018-12-27T18:42:51.985Z,28.62
2018-12-27T18:45:39.919Z,30.40
2018-12-27T18:48:27.888Z,29.57
2018-12-27T18:51:15.746Z,30.55
2018-12-27T18:54:03.783Z,24.37
2018-12-27T18:56:51.705Z,31.90
2018-12-27T18:59:39.599Z,26.35
2018-12-27T19:02:27.582Z,31.37
2018-12-27T19:05:08.321Z,36.00
2018-12-27T19:07:49.493Z,29.48
2018-12-27T19:10:30.882Z,30.97
2018-12-27T19:13:11.690Z,28.90
2018-12-27T19:15:52.632Z,33.33
2018-12-27T19:18:33.618Z,31.02
2018-12-27T19:21:14.211Z,28.15
2018-12-27T19:23:54.861Z,32.23
2018-12-27T19:26:35.747Z,31.62
2018-12-27T19:29:16.351Z,35.08
2018-12-27T19:31:56.776Z,33.33
2018-12-27T19:34:37.521Z,33.63
2018-12-27T19:37:18.171Z,29.98
2018-12-27T19:39:58.693Z,29.75
2018-12-27T19:42:39.098Z,28.38
2018-12-27T19:45:20.033Z,30.88
2018-12-27T19:48:00.592Z,30.85
2018-12-27T19:50:41.171Z,29.70
2018-12-27T19:53:21.992Z,31.48
2018-12-27T19:56:02.415Z,32.30
2018-12-27T19:58:42.930Z,27.90
2018-12-27T20:01:23.750Z,33.38
2018-12-27T20:04:04.840Z,28.23
2018-12-27T20:06:45.545Z,30.95
2018-12-27T20:09:26.285Z,34.70
2018-12-27T20:12:07.311Z,35.40
2018-12-27T20:14:47.883Z,34.53
2018-12-27T20:17:28.806Z,33.63
2018-12-27T20:20:09.625Z,33.48
2018-12-27T20:22:38.236Z,33.85
2018-12-27T20:25:26.135Z,30.90
2018-12-27T20:28:13.980Z,41.28
2018-12-27T20:31:02.019Z,33.25
2018-12-27T20:33:50.058Z,32.90
2018-12-27T20:36:38.068Z,31.45
2018-12-27T20:39:25.949Z,31.82
2018-12-27T20:42:13.945Z,37.03
2018-12-27T20:45:01.737Z,32.88
2018-12-27T20:47:49.779Z,38.85
2018-12-27T20:50:37.657Z,36.15
2018-12-27T20:53:25.560Z,35.15
2018-12-27T20:56:13.560Z,32.28
2018-12-27T20:59:01.618Z,35.45
2018-12-27T21:01:49.518Z,41.02
2018-12-27T21:04:30.757Z,35.33
2018-12-27T21:07:11.649Z,41.25
2018-12-27T21:09:52.596Z,38.20
2018-12-27T21:12:34.190Z,39.38
2018-12-27T21:15:14.801Z,42.08
2018-12-27T21:17:55.241Z,43.23
2018-12-27T21:20:36.201Z,42.15
2018-12-27T21:23:16.606Z,45.83
2018-12-27T21:25:57.261Z,42.43
2018-12-27T21:28:38.418Z,50.78
2018-12-27T21:31:19.135Z,43.55
2018-12-27T21:33:59.855Z,42.90
2018-12-27T21:36:40.842Z,46.02
2018-12-27T21:39:21.312Z,39.90
2018-12-27T21:42:02.440Z,43.02
2018-12-27T21:44:31.082Z,33.42
2018-12-27T21:47:18.954Z,43.75
2018-12-27T21:50:06.845Z,43.83
2018-12-27T21:52:35.379Z,40.80
2018-12-27T21:55:04.114Z,39.58
2018-12-27T21:57:32.573Z,36.55
2018-12-27T22:00:01.183Z,45.58
2018-12-27T22:02:29.728Z,30.65
2018-12-27T22:04:58.351Z,43.08
2018-12-27T22:07:27.251Z,38.55
2018-12-27T22:09:55.750Z,38.67
2018-12-27T22:12:24.317Z,39.67
2018-12-27T22:14:52.858Z,50.03
2018-12-27T22:17:21.410Z,46.23
2018-12-27T22:19:49.867Z,45.25
2018-12-27T22:22:18.384Z,45.58
2018-12-27T22:24:46.840Z,46.92
2018-12-27T22:27:15.341Z,43.95
2018-12-27T22:29:43.870Z,41.45
2018-12-27T22:32:12.423Z,43.60
2018-12-27T22:34:42.554Z,61.68
2018-12-27T22:37:11.088Z,43.42
2018-12-27T22:39:39.609Z,43.50
2018-12-27T22:42:08.197Z,48.08
2018-12-27T22:44:36.673Z,41.83
2018-12-27T22:47:05.141Z,48.13
2018-12-27T22:49:33.780Z,47.58
2018-12-27T22:52:02.307Z,47.38
2018-12-27T22:54:30.881Z,49.33
2018-12-27T22:56:59.408Z,45.48
2018-12-27T22:59:27.988Z,46.45
2018-12-27T23:01:56.537Z,48.80
2018-12-27T23:04:25.029Z,47.20
2018-12-27T23:06:53.468Z,45.33
2018-12-27T23:09:22.824Z,41.53
2018-12-27T23:11:51.405Z,46.50
2018-12-27T23:14:19.852Z,50.63
2018-12-27T23:16:48.456Z,51.65
2018-12-27T23:19:16.954Z,51.45
2018-12-27T23:21:45.450Z,46.05
2018-12-27T23:24:13.890Z,49.40
2018-12-27T23:26:42.383Z,51.13
2018-12-27T23:29:10.900Z,50.52
2018-12-27T23:31:39.335Z,56.37
2018-12-27T23:34:07.809Z,51.80
2018-12-27T23:36:36.309Z,62.48
2018-12-27T23:39:07.281Z,53.17
2018-12-27T23:41:35.773Z,58.52
2018-12-27T23:44:04.269Z,59.95
2018-12-27T23:46:32.763Z,56.53
2018-12-27T23:49:01.216Z,54.15
2018-12-27T23:51:29.697Z,50.90
2018-12-27T23:53:58.272Z,56.42
2018-12-27T23:56:26.796Z,50.28
2018-12-27T23:58:55.249Z,56.60
